sensor_id;sensor_type;location;lat;lon;timestamp;pressure;altitude;pressure_sealevel;temperature;humidity
72330;BME280;69154;52.076;5.110;2023-04-24T00:00:35;99919.83;;;5.07;49.66
72330;BME280;69154;52.076;5.110;2023-04-24T00:03:01;99927.48;;;5.55;49.58
72330;BME280;69154;52.076;5.110;2023-04-24T00:05:25;99930.65;;;6.26;47.19
72330;BME280;69154;52.076;5.110;2023-04-24T00:07:51;99934.82;;;7.72;45.27
72330;BME280;69154;52.076;5.110;2023-04-24T00:10:16;99932.13;;;5.57;46.88
72330;BME280;69154;52.076;5.110;2023-04-24T00:12:41;99936.80;;;7.79;44.66
72330;BME280;69154;52.076;5.110;2023-04-24T00:15:08;99940.22;;;7.57;43.45
72330;BME280;69154;52.076;5.110;2023-04-24T00:17:32;99939.68;;;7.43;44.07
72330;BME280;69154;52.076;5.110;2023-04-24T00:19:58;99936.39;;;7.24;44.94
72330;BME280;69154;52.076;5.110;2023-04-24T00:22:23;99944.75;;;7.04;44.51
72330;BME280;69154;52.076;5.110;2023-04-24T00:24:48;99942.59;;;7.69;44.02
72330;BME280;69154;52.076;5.110;2023-04-24T00:27:14;99944.18;;;8.59;41.94
72330;BME280;69154;52.076;5.110;2023-04-24T00:29:39;99946.65;;;8.81;41.62
72330;BME280;69154;52.076;5.110;2023-04-24T00:32:04;99945.63;;;8.16;41.58
72330;BME280;69154;52.076;5.110;2023-04-24T00:34:30;99948.78;;;7.66;43.07
72330;BME280;69154;52.076;5.110;2023-04-24T00:36:55;99947.14;;;9.15;41.00
72330;BME280;69154;52.076;5.110;2023-04-24T00:39:21;99951.14;;;8.47;40.95
72330;BME280;69154;52.076;5.110;2023-04-24T00:41:46;99958.30;;;9.11;40.28
72330;BME280;69154;52.076;5.110;2023-04-24T00:44:11;99954.94;;;8.88;39.91
72330;BME280;69154;52.076;5.110;2023-04-24T00:46:37;99957.48;;;9.35;39.27
72330;BME280;69154;52.076;5.110;2023-04-24T00:49:02;99957.54;;;8.65;41.02
72330;BME280;69154;52.076;5.110;2023-04-24T00:51:28;99960.88;;;9.05;40.53
72330;BME280;69154;52.076;5.110;2023-04-24T00:53:52;99960.94;;;9.34;40.52
72330;BME280;69154;52.076;5.110;2023-04-24T00:56:18;99955.14;;;7.74;41.31
72330;BME280;69154;52.076;5.110;2023-04-24T00:58:43;99961.91;;;8.47;41.45
72330;BME280;69154;52.076;5.110;2023-04-24T01:01:08;99957.95;;;7.97;40.84
72330;BME280;69154;52.076;5.110;2023-04-24T01:03:34;99959.11;;;8.68;40.70
72330;BME280;69154;52.076;5.110;2023-04-24T01:06:00;99957.17;;;10.11;38.91
72330;BME280;69154;52.076;5.110;2023-04-24T01:08:24;99959.04;;;9.74;38.82
72330;BME280;69154;52.076;5.110;2023-04-24T01:10:49;99954.43;;;10.04;38.77
72330;BME280;69154;52.076;5.110;2023-04-24T01:13:15;99954.68;;;10.07;37.75
72330;BME280;69154;52.076;5.110;2023-04-24T01:15:40;99957.96;;;10.28;38.08
72330;BME280;69154;52.076;5.110;2023-04-24T01:18:05;99966.21;;;9.48;38.92
72330;BME280;69154;52.076;5.110;2023-04-24T01:20:31;99963.52;;;9.50;39.00
72330;BME280;69154;52.076;5.110;2023-04-24T01:22:56;99967.44;;;9.81;38.81
72330;BME280;69154;52.076;5.110;2023-04-24T01:25:21;99967.38;;;8.90;39.39
72330;BME280;69154;52.076;5.110;2023-04-24T01:27:46;99969.66;;;9.33;39.48
72330;BME280;69154;52.076;5.110;2023-04-24T01:30:12;99969.26;;;9.11;38.54
72330;BME280;69154;52.076;5.110;2023-04-24T01:32:37;99965.72;;;10.41;37.90
72330;BME280;69154;52.076;5.110;2023-04-24T01:35:04;99965.63;;;10.33;37.70
72330;BME280;69154;52.076;5.110;2023-04-24T01:37:27;99967.47;;;9.98;37.78
72330;BME280;69154;52.076;5.110;2023-04-24T01:39:53;99966.68;;;10.16;37.86
72330;BME280;69154;52.076;5.110;2023-04-24T01:42:18;99968.98;;;9.55;38.01
72330;BME280;69154;52.076;5.110;2023-04-24T01:44:43;99972.22;;;9.49;38.63
72330;BME280;69154;52.076;5.110;2023-04-24T01:47:09;99970.17;;;9.66;38.03
72330;BME280;69154;52.076;5.110;2023-04-24T01:49:34;99967.80;;;10.08;37.81
72330;BME280;69154;52.076;5.110;2023-04-24T01:51:59;99963.48;;;11.12;37.16
72330;BME280;69154;52.076;5.110;2023-04-24T01:54:24;99963.04;;;10.34;36.97
72330;BME280;69154;52.076;5.110;2023-04-24T01:56:50;99964.47;;;9.83;38.07
72330;BME280;69154;52.076;5.110;2023-04-24T01:59:17;99963.37;;;9.29;38.11
72330;BME280;69154;52.076;5.110;2023-04-24T02:01:41;99959.00;;;10.14;37.70
72330;BME280;69154;52.076;5.110;2023-04-24T02:04:07;99960.58;;;9.48;37.61
72330;BME280;69154;52.076;5.110;2023-04-24T02:06:31;99962.94;;;10.06;37.04
72330;BME280;69154;52.076;5.110;2023-04-24T02:08:56;99963.35;;;10.77;36.86
72330;BME280;69154;52.076;5.110;2023-04-24T02:11:22;99965.18;;;10.06;37.28
72330;BME280;69154;52.076;5.110;2023-04-24T02:13:47;99971.50;;;9.74;38.01
72330;BME280;69154;52.076;5.110;2023-04-24T02:16:12;99968.43;;;9.56;37.15
72330;BME280;69154;52.076;5.110;2023-04-24T02:18:37;99969.13;;;10.37;36.86
72330;BME280;69154;52.076;5.110;2023-04-24T02:21:03;99970.13;;;9.91;37.10
72330;BME280;69154;52.076;5.110;2023-04-24T02:23:29;99967.50;;;10.45;36.40
72330;BME280;69154;52.076;5.110;2023-04-24T02:25:54;99969.52;;;9.47;37.89
72330;BME280;69154;52.076;5.110;2023-04-24T02:28:19;99971.57;;;9.73;37.27
72330;BME280;69154;52.076;5.110;2023-04-24T02:30:44;99967.43;;;10.50;37.28
72330;BME280;69154;52.076;5.110;2023-04-24T02:33:09;99968.84;;;11.36;35.51
72330;BME280;69154;52.076;5.110;2023-04-24T02:35:35;99967.94;;;10.69;36.67
72330;BME280;69154;52.076;5.110;2023-04-24T02:38:00;99968.10;;;10.94;36.07
72330;BME280;69154;52.076;5.110;2023-04-24T02:40:25;99971.80;;;10.97;35.52
72330;BME280;69154;52.076;5.110;2023-04-24T02:42:50;99969.37;;;10.67;36.14
72330;BME280;69154;52.076;5.110;2023-04-24T02:45:17;99971.85;;;9.67;36.22
72330;BME280;69154;52.076;5.110;2023-04-24T02:47:41;99974.29;;;11.89;35.14
72330;BME280;69154;52.076;5.110;2023-04-24T02:50:07;99974.19;;;9.53;37.00
72330;BME280;69154;52.076;5.110;2023-04-24T02:52:32;99971.14;;;10.54;36.44
72330;BME280;69154;52.076;5.110;2023-04-24T02:54:58;99968.92;;;10.58;36.06
72330;BME280;69154;52.076;5.110;2023-04-24T02:57:23;99968.23;;;10.95;35.31
72330;BME280;69154;52.076;5.110;2023-04-24T02:59:48;99961.85;;;10.20;36.85
72330;BME280;69154;52.076;5.110;2023-04-24T03:02:14;99962.45;;;10.15;35.86
72330;BME280;69154;52.076;5.110;2023-04-24T03:04:39;99960.65;;;10.38;36.26
72330;BME280;69154;52.076;5.110;2023-04-24T03:07:04;99958.59;;;10.45;36.18
72330;BME280;69154;52.076;5.110;2023-04-24T03:09:30;99959.03;;;10.61;36.65
72330;BME280;69154;52.076;5.110;2023-04-24T03:11:56;99956.39;;;11.18;35.51
72330;BME280;69154;52.076;5.110;2023-04-24T03:14:22;99955.97;;;10.68;35.98
72330;BME280;69154;52.076;5.110;2023-04-24T03:16:47;99959.68;;;11.13;35.75
72330;BME280;69154;52.076;5.110;2023-04-24T03:19:13;99959.21;;;10.02;35.68
72330;BME280;69154;52.076;5.110;2023-04-24T03:21:39;99962.61;;;10.57;35.98
72330;BME280;69154;52.076;5.110;2023-04-24T03:24:04;99965.02;;;10.68;35.85
72330;BME280;69154;52.076;5.110;2023-04-24T03:26:30;99962.83;;;10.65;35.72
72330;BME280;69154;52.076;5.110;2023-04-24T03:28:55;99963.61;;;11.42;35.23
72330;BME280;69154;52.076;5.110;2023-04-24T03:31:21;99963.68;;;10.49;35.48
72330;BME280;69154;52.076;5.110;2023-04-24T03:33:46;99962.84;;;11.04;35.44
72330;BME280;69154;52.076;5.110;2023-04-24T03:36:12;99958.98;;;10.52;35.05
72330;BME280;69154;52.076;5.110;2023-04-24T03:38:39;99956.00;;;9.85;36.12
72330;BME280;69154;52.076;5.110;2023-04-24T03:41:04;99955.39;;;10.51;35.87
72330;BME280;69154;52.076;5.110;2023-04-24T03:43:29;99951.21;;;10.74;35.45
72330;BME280;69154;52.076;5.110;2023-04-24T03:45:55;99950.28;;;10.40;35.86
72330;BME280;69154;52.076;5.110;2023-04-24T03:48:21;99947.65;;;10.56;35.21
72330;BME280;69154;52.076;5.110;2023-04-24T03:50:45;99945.60;;;11.54;34.46
72330;BME280;69154;52.076;5.110;2023-04-24T03:53:11;99945.49;;;11.21;34.20
72330;BME280;69154;52.076;5.110;2023-04-24T03:55:37;99949.58;;;11.81;33.61
72330;BME280;69154;52.076;5.110;2023-04-24T03:58:02;99950.15;;;12.31;33.16
72330;BME280;69154;52.076;5.110;2023-04-24T04:00:28;99952.69;;;12.43;33.25
72330;BME280;69154;52.076;5.110;2023-04-24T04:02:53;99947.58;;;12.51;32.94
72330;BME280;69154;52.076;5.110;2023-04-24T04:05:19;99946.40;;;11.80;33.30
72330;BME280;69154;52.076;5.110;2023-04-24T04:07:45;99947.05;;;12.58;32.85
72330;BME280;69154;52.076;5.110;2023-04-24T04:10:10;99951.72;;;10.16;33.78
72330;BME280;69154;52.076;5.110;2023-04-24T04:12:36;99951.00;;;13.01;32.46
72330;BME280;69154;52.076;5.110;2023-04-24T04:15:01;99955.72;;;11.65;33.92
72330;BME280;69154;52.076;5.110;2023-04-24T04:17:26;99958.27;;;12.55;32.92
72330;BME280;69154;52.076;5.110;2023-04-24T04:19:52;99960.02;;;9.63;36.40
72330;BME280;69154;52.076;5.110;2023-04-24T04:22:17;99957.64;;;8.83;35.96
72330;BME280;69154;52.076;5.110;2023-04-24T04:24:43;99966.48;;;12.22;33.87
72330;BME280;69154;52.076;5.110;2023-04-24T04:27:08;99967.17;;;10.84;34.30
72330;BME280;69154;52.076;5.110;2023-04-24T04:29:34;99973.79;;;10.79;34.78
72330;BME280;69154;52.076;5.110;2023-04-24T04:32:05;99971.90;;;11.02;35.04
72330;BME280;69154;52.076;5.110;2023-04-24T04:34:25;99981.63;;;11.39;34.10
72330;BME280;69154;52.076;5.110;2023-04-24T04:36:51;99990.37;;;11.32;34.07
72330;BME280;69154;52.076;5.110;2023-04-24T04:39:16;99993.22;;;11.01;34.08
72330;BME280;69154;52.076;5.110;2023-04-24T04:41:41;99997.89;;;10.26;35.57
72330;BME280;69154;52.076;5.110;2023-04-24T04:44:07;100003.12;;;10.07;35.86
72330;BME280;69154;52.076;5.110;2023-04-24T04:46:33;100009.56;;;9.76;36.41
72330;BME280;69154;52.076;5.110;2023-04-24T04:48:59;100018.25;;;8.54;38.16
72330;BME280;69154;52.076;5.110;2023-04-24T04:51:23;100022.91;;;9.18;37.74
72330;BME280;69154;52.076;5.110;2023-04-24T04:53:49;100025.36;;;8.65;38.05
72330;BME280;69154;52.076;5.110;2023-04-24T04:56:14;100028.58;;;8.39;37.71
72330;BME280;69154;52.076;5.110;2023-04-24T04:58:39;100030.91;;;8.71;38.38
72330;BME280;69154;52.076;5.110;2023-04-24T05:01:05;100035.04;;;7.64;39.78
72330;BME280;69154;52.076;5.110;2023-04-24T05:03:30;100041.90;;;8.93;38.01
72330;BME280;69154;52.076;5.110;2023-04-24T05:05:55;100045.09;;;9.44;37.42
72330;BME280;69154;52.076;5.110;2023-04-24T05:08:21;100048.74;;;9.51;36.72
72330;BME280;69154;52.076;5.110;2023-04-24T05:10:46;100054.14;;;9.30;36.47
72330;BME280;69154;52.076;5.110;2023-04-24T05:13:12;100061.85;;;8.51;36.93
72330;BME280;69154;52.076;5.110;2023-04-24T05:15:37;100069.45;;;8.63;37.27
72330;BME280;69154;52.076;5.110;2023-04-24T05:18:02;100078.32;;;9.32;37.17
72330;BME280;69154;52.076;5.110;2023-04-24T05:20:28;100080.05;;;9.14;36.86
72330;BME280;69154;52.076;5.110;2023-04-24T05:22:53;100081.58;;;9.58;36.41
72330;BME280;69154;52.076;5.110;2023-04-24T05:25:18;100081.64;;;8.48;36.49
72330;BME280;69154;52.076;5.110;2023-04-24T05:27:44;100090.20;;;9.07;36.21
72330;BME280;69154;52.076;5.110;2023-04-24T05:30:10;100095.28;;;10.20;34.69
72330;BME280;69154;52.076;5.110;2023-04-24T05:32:34;100100.69;;;10.20;35.10
72330;BME280;69154;52.076;5.110;2023-04-24T05:35:00;100106.30;;;10.64;34.77
72330;BME280;69154;52.076;5.110;2023-04-24T05:37:25;100112.83;;;10.29;34.71
72330;BME280;69154;52.076;5.110;2023-04-24T05:39:50;100115.03;;;10.64;34.86
72330;BME280;69154;52.076;5.110;2023-04-24T05:42:16;100116.85;;;10.27;34.02
72330;BME280;69154;52.076;5.110;2023-04-24T05:44:42;100118.24;;;11.12;33.71
72330;BME280;69154;52.076;5.110;2023-04-24T05:47:07;100126.00;;;11.07;33.44
72330;BME280;69154;52.076;5.110;2023-04-24T05:49:32;100128.32;;;12.24;32.80
72330;BME280;69154;52.076;5.110;2023-04-24T05:51:58;100136.41;;;11.39;33.45
72330;BME280;69154;52.076;5.110;2023-04-24T05:54:23;100138.07;;;10.27;34.03
72330;BME280;69154;52.076;5.110;2023-04-24T05:56:49;100143.17;;;11.37;34.41
72330;BME280;69154;52.076;5.110;2023-04-24T05:59:14;100148.19;;;11.01;33.60
72330;BME280;69154;52.076;5.110;2023-04-24T06:01:39;100155.53;;;10.35;35.36
72330;BME280;69154;52.076;5.110;2023-04-24T06:04:04;100162.03;;;9.96;35.80
72330;BME280;69154;52.076;5.110;2023-04-24T06:06:29;100168.68;;;9.87;36.83
72330;BME280;69154;52.076;5.110;2023-04-24T06:08:55;100177.89;;;7.50;40.24
72330;BME280;69154;52.076;5.110;2023-04-24T06:11:20;100179.14;;;6.42;43.12
72330;BME280;69154;52.076;5.110;2023-04-24T06:13:47;100187.96;;;4.89;46.21
72330;BME280;69154;52.076;5.110;2023-04-24T06:16:11;100194.42;;;4.74;47.52
72330;BME280;69154;52.076;5.110;2023-04-24T06:18:37;100202.43;;;5.23;47.60
72330;BME280;69154;52.076;5.110;2023-04-24T06:21:07;100207.07;;;4.75;48.29
72330;BME280;69154;52.076;5.110;2023-04-24T06:23:27;100216.56;;;4.94;48.66
72330;BME280;69154;52.076;5.110;2023-04-24T06:25:52;100225.34;;;4.91;48.60
72330;BME280;69154;52.076;5.110;2023-04-24T06:28:18;100236.06;;;4.77;47.21
72330;BME280;69154;52.076;5.110;2023-04-24T06:30:43;100240.54;;;4.68;48.17
72330;BME280;69154;52.076;5.110;2023-04-24T06:33:13;100247.84;;;4.18;48.91
72330;BME280;69154;52.076;5.110;2023-04-24T06:35:34;100260.74;;;5.49;47.68
72330;BME280;69154;52.076;5.110;2023-04-24T06:38:00;100262.18;;;4.24;50.50
72330;BME280;69154;52.076;5.110;2023-04-24T06:40:25;100275.57;;;4.54;49.97
72330;BME280;69154;52.076;5.110;2023-04-24T06:42:50;100281.64;;;5.17;48.37
72330;BME280;69154;52.076;5.110;2023-04-24T06:45:15;100289.54;;;3.84;49.53
72330;BME280;69154;52.076;5.110;2023-04-24T06:47:41;100294.41;;;3.27;51.21
72330;BME280;69154;52.076;5.110;2023-04-24T06:50:07;100303.95;;;4.24;49.30
72330;BME280;69154;52.076;5.110;2023-04-24T06:52:33;100305.76;;;4.99;48.54
72330;BME280;69154;52.076;5.110;2023-04-24T06:55:04;100311.34;;;5.23;46.99
72330;BME280;69154;52.076;5.110;2023-04-24T06:57:23;100317.47;;;5.03;46.21
72330;BME280;69154;52.076;5.110;2023-04-24T06:59:49;100317.88;;;6.15;44.96
72330;BME280;69154;52.076;5.110;2023-04-24T07:02:14;100325.11;;;5.75;44.43
72330;BME280;69154;52.076;5.110;2023-04-24T07:04:39;100329.88;;;6.66;43.78
72330;BME280;69154;52.076;5.110;2023-04-24T07:07:05;100332.94;;;6.19;43.07
72330;BME280;69154;52.076;5.110;2023-04-24T07:09:30;100337.05;;;5.81;43.69
72330;BME280;69154;52.076;5.110;2023-04-24T07:11:55;100348.75;;;6.69;43.23
72330;BME280;69154;52.076;5.110;2023-04-24T07:14:21;100354.50;;;5.79;43.61
72330;BME280;69154;52.076;5.110;2023-04-24T07:16:46;100362.90;;;5.56;44.45
72330;BME280;69154;52.076;5.110;2023-04-24T07:19:11;100364.98;;;4.90;45.54
72330;BME280;69154;52.076;5.110;2023-04-24T07:21:36;100368.22;;;6.12;44.42
72330;BME280;69154;52.076;5.110;2023-04-24T07:24:01;100374.08;;;5.67;45.37
72330;BME280;69154;52.076;5.110;2023-04-24T07:26:28;100375.04;;;5.38;45.27
72330;BME280;69154;52.076;5.110;2023-04-24T07:28:52;100377.79;;;5.61;45.34
72330;BME280;69154;52.076;5.110;2023-04-24T07:31:17;100377.95;;;5.03;45.54
72330;BME280;69154;52.076;5.110;2023-04-24T07:33:43;100393.36;;;5.37;45.36
72330;BME280;69154;52.076;5.110;2023-04-24T07:36:08;100390.98;;;5.10;46.31
72330;BME280;69154;52.076;5.110;2023-04-24T07:38:33;100399.77;;;5.83;44.26
72330;BME280;69154;52.076;5.110;2023-04-24T07:40:59;100410.62;;;5.45;44.79
72330;BME280;69154;52.076;5.110;2023-04-24T07:43:24;100414.15;;;5.00;45.33
72330;BME280;69154;52.076;5.110;2023-04-24T07:45:49;100417.47;;;5.73;44.19
72330;BME280;69154;52.076;5.110;2023-04-24T07:48:15;100423.01;;;5.15;45.18
72330;BME280;69154;52.076;5.110;2023-04-24T07:50:40;100424.23;;;6.40;44.35
72330;BME280;69154;52.076;5.110;2023-04-24T07:53:05;100435.52;;;4.73;45.81
72330;BME280;69154;52.076;5.110;2023-04-24T07:55:30;100442.20;;;4.15;46.03
72330;BME280;69154;52.076;5.110;2023-04-24T07:57:56;100444.30;;;4.64;48.17
72330;BME280;69154;52.076;5.110;2023-04-24T08:00:21;100455.97;;;5.28;45.44
72330;BME280;69154;52.076;5.110;2023-04-24T08:02:46;100459.72;;;6.03;44.16
72330;BME280;69154;52.076;5.110;2023-04-24T08:05:11;100460.65;;;6.32;43.00
72330;BME280;69154;52.076;5.110;2023-04-24T08:07:37;100465.40;;;6.09;42.79
72330;BME280;69154;52.076;5.110;2023-04-24T08:10:02;100469.37;;;6.12;43.11
72330;BME280;69154;52.076;5.110;2023-04-24T08:12:28;100478.67;;;5.87;43.86
72330;BME280;69154;52.076;5.110;2023-04-24T08:14:52;100488.91;;;5.43;44.05
72330;BME280;69154;52.076;5.110;2023-04-24T08:17:18;100491.67;;;5.51;43.30
72330;BME280;69154;52.076;5.110;2023-04-24T08:19:43;100498.82;;;5.65;42.01
72330;BME280;69154;52.076;5.110;2023-04-24T08:22:09;100507.03;;;3.84;43.35
72330;BME280;69154;52.076;5.110;2023-04-24T08:24:35;100513.61;;;4.68;44.38
72330;BME280;69154;52.076;5.110;2023-04-24T08:27:00;100521.68;;;5.53;43.03
72330;BME280;69154;52.076;5.110;2023-04-24T08:29:24;100533.03;;;5.82;41.24
72330;BME280;69154;52.076;5.110;2023-04-24T08:31:50;100529.50;;;5.83;41.05
72330;BME280;69154;52.076;5.110;2023-04-24T08:34:16;100540.05;;;5.12;41.95
72330;BME280;69154;52.076;5.110;2023-04-24T08:36:40;100534.39;;;6.12;40.48
72330;BME280;69154;52.076;5.110;2023-04-24T08:39:05;100542.03;;;5.96;40.04
72330;BME280;69154;52.076;5.110;2023-04-24T08:41:31;100544.41;;;6.09;40.09
72330;BME280;69154;52.076;5.110;2023-04-24T08:43:57;100555.02;;;6.02;41.22
72330;BME280;69154;52.076;5.110;2023-04-24T08:46:22;100567.13;;;3.50;44.22
72330;BME280;69154;52.076;5.110;2023-04-24T08:48:48;100562.39;;;5.45;42.94
72330;BME280;69154;52.076;5.110;2023-04-24T08:51:12;100569.83;;;5.30;41.42
72330;BME280;69154;52.076;5.110;2023-04-24T08:53:39;100564.36;;;5.70;41.90
72330;BME280;69154;52.076;5.110;2023-04-24T08:56:04;100570.90;;;5.53;41.72
72330;BME280;69154;52.076;5.110;2023-04-24T08:58:31;100572.03;;;5.56;41.50
72330;BME280;69154;52.076;5.110;2023-04-24T09:00:56;100572.90;;;5.76;40.35
72330;BME280;69154;52.076;5.110;2023-04-24T09:03:21;100581.22;;;6.05;39.44
72330;BME280;69154;52.076;5.110;2023-04-24T09:05:47;100579.85;;;5.94;40.10
72330;BME280;69154;52.076;5.110;2023-04-24T09:08:11;100584.56;;;5.83;39.06
72330;BME280;69154;52.076;5.110;2023-04-24T09:10:36;100591.58;;;5.91;39.12
72330;BME280;69154;52.076;5.110;2023-04-24T09:13:01;100594.82;;;7.56;37.24
72330;BME280;69154;52.076;5.110;2023-04-24T09:15:27;100596.44;;;7.36;36.55
72330;BME280;69154;52.076;5.110;2023-04-24T09:17:52;100599.62;;;8.63;34.92
72330;BME280;69154;52.076;5.110;2023-04-24T09:20:18;100599.15;;;9.43;33.54
72330;BME280;69154;52.076;5.110;2023-04-24T09:22:45;100597.83;;;11.05;30.81
72330;BME280;69154;52.076;5.110;2023-04-24T09:25:09;100609.53;;;9.21;31.88
72330;BME280;69154;52.076;5.110;2023-04-24T09:27:34;100610.83;;;8.19;32.60
72330;BME280;69154;52.076;5.110;2023-04-24T09:29:59;100619.61;;;8.83;33.14
72330;BME280;69154;52.076;5.110;2023-04-24T09:32:24;100619.44;;;8.18;34.39
72330;BME280;69154;52.076;5.110;2023-04-24T09:34:49;100622.91;;;8.03;34.05
72330;BME280;69154;52.076;5.110;2023-04-24T09:37:27;100626.58;;;7.84;34.59
72330;BME280;69154;52.076;5.110;2023-04-24T09:39:39;100628.47;;;9.20;33.04
72330;BME280;69154;52.076;5.110;2023-04-24T09:42:05;100638.76;;;8.19;33.45
72330;BME280;69154;52.076;5.110;2023-04-24T09:44:34;100640.58;;;8.31;33.11
72330;BME280;69154;52.076;5.110;2023-04-24T09:46:57;100643.11;;;8.01;33.96
72330;BME280;69154;52.076;5.110;2023-04-24T09:49:23;100652.98;;;9.26;31.97
72330;BME280;69154;52.076;5.110;2023-04-24T09:51:46;100654.77;;;8.22;32.35
72330;BME280;69154;52.076;5.110;2023-04-24T09:54:14;100653.92;;;7.59;33.62
72330;BME280;69154;52.076;5.110;2023-04-24T09:56:42;100670.35;;;7.68;34.79
72330;BME280;69154;52.076;5.110;2023-04-24T09:59:05;100665.26;;;8.58;34.57
72330;BME280;69154;52.076;5.110;2023-04-24T10:01:30;100679.56;;;7.21;34.46
72330;BME280;69154;52.076;5.110;2023-04-24T10:03:53;100677.88;;;7.99;34.37
72330;BME280;69154;52.076;5.110;2023-04-24T10:06:18;100686.07;;;7.05;34.58
72330;BME280;69154;52.076;5.110;2023-04-24T10:08:43;100692.72;;;6.81;36.72
72330;BME280;69154;52.076;5.110;2023-04-24T10:11:08;100694.16;;;5.98;37.02
72330;BME280;69154;52.076;5.110;2023-04-24T10:13:35;100690.72;;;7.05;36.02
72330;BME280;69154;52.076;5.110;2023-04-24T10:16:00;100685.90;;;6.86;36.64
72330;BME280;69154;52.076;5.110;2023-04-24T10:18:25;100685.55;;;9.02;33.62
72330;BME280;69154;52.076;5.110;2023-04-24T10:20:50;100687.14;;;10.31;32.16
72330;BME280;69154;52.076;5.110;2023-04-24T10:23:15;100686.68;;;9.01;31.57
72330;BME280;69154;52.076;5.110;2023-04-24T10:25:40;100697.36;;;9.76;31.74
72330;BME280;69154;52.076;5.110;2023-04-24T10:28:06;100696.05;;;8.24;33.36
72330;BME280;69154;52.076;5.110;2023-04-24T10:30:33;100697.35;;;8.63;33.59
72330;BME280;69154;52.076;5.110;2023-04-24T10:32:57;100708.06;;;6.34;36.61
72330;BME280;69154;52.076;5.110;2023-04-24T10:35:22;100709.27;;;6.83;36.71
72330;BME280;69154;52.076;5.110;2023-04-24T10:37:50;100708.83;;;7.97;34.65
72330;BME280;69154;52.076;5.110;2023-04-24T10:40:17;100713.03;;;9.75;33.63
72330;BME280;69154;52.076;5.110;2023-04-24T10:42:40;100715.73;;;11.11;31.54
72330;BME280;69154;52.076;5.110;2023-04-24T10:45:05;100713.47;;;11.85;31.01
72330;BME280;69154;52.076;5.110;2023-04-24T10:47:28;100711.92;;;13.89;28.48
72330;BME280;69154;52.076;5.110;2023-04-24T10:49:53;100714.68;;;15.72;26.40
72330;BME280;69154;52.076;5.110;2023-04-24T10:52:18;100717.34;;;15.41;26.12
72330;BME280;69154;52.076;5.110;2023-04-24T10:54:44;100708.92;;;18.96;23.63
72330;BME280;69154;52.076;5.110;2023-04-24T10:58:01;100709.85;;;16.07;23.65
72330;BME280;69154;52.076;5.110;2023-04-24T10:59:35;100712.33;;;14.56;25.21
72330;BME280;69154;52.076;5.110;2023-04-24T11:01:59;100712.25;;;13.08;26.02
72330;BME280;69154;52.076;5.110;2023-04-24T11:04:30;100721.33;;;11.07;27.91
72330;BME280;69154;52.076;5.110;2023-04-24T11:06:52;100734.37;;;8.82;31.23
72330;BME280;69154;52.076;5.110;2023-04-24T11:09:15;100731.72;;;7.77;32.94
72330;BME280;69154;52.076;5.110;2023-04-24T11:11:45;100734.46;;;7.15;33.59
72330;BME280;69154;52.076;5.110;2023-04-24T11:14:06;100738.49;;;7.21;33.50
72330;BME280;69154;52.076;5.110;2023-04-24T11:16:31;100743.92;;;7.72;33.64
72330;BME280;69154;52.076;5.110;2023-04-24T11:19:01;100742.12;;;7.60;33.64
72330;BME280;69154;52.076;5.110;2023-04-24T11:21:22;100754.59;;;5.61;37.73
72330;BME280;69154;52.076;5.110;2023-04-24T11:23:46;100766.37;;;6.65;37.65
72330;BME280;69154;52.076;5.110;2023-04-24T11:26:12;100775.67;;;5.08;38.40
72330;BME280;69154;52.076;5.110;2023-04-24T11:28:37;100773.26;;;5.11;39.19
72330;BME280;69154;52.076;5.110;2023-04-24T11:31:34;100770.87;;;7.06;37.72
72330;BME280;69154;52.076;5.110;2023-04-24T11:33:28;100773.39;;;7.53;35.45
72330;BME280;69154;52.076;5.110;2023-04-24T11:35:52;100773.08;;;8.42;35.40
72330;BME280;69154;52.076;5.110;2023-04-24T11:38:18;100776.54;;;7.60;34.99
72330;BME280;69154;52.076;5.110;2023-04-24T11:40:43;100777.59;;;8.43;34.71
72330;BME280;69154;52.076;5.110;2023-04-24T11:43:09;100782.80;;;7.31;33.95
72330;BME280;69154;52.076;5.110;2023-04-24T11:45:48;100782.81;;;7.76;34.09
72330;BME280;69154;52.076;5.110;2023-04-24T11:48:00;100780.48;;;8.81;33.54
72330;BME280;69154;52.076;5.110;2023-04-24T11:50:25;100780.63;;;8.53;33.14
72330;BME280;69154;52.076;5.110;2023-04-24T11:52:50;100791.57;;;8.30;34.00
72330;BME280;69154;52.076;5.110;2023-04-24T11:55:30;100792.23;;;7.44;34.10
72330;BME280;69154;52.076;5.110;2023-04-24T11:57:41;100796.75;;;8.39;33.58
72330;BME280;69154;52.076;5.110;2023-04-24T12:00:06;100804.47;;;9.67;30.99
72330;BME280;69154;52.076;5.110;2023-04-24T12:02:30;100806.63;;;11.53;29.77
72330;BME280;69154;52.076;5.110;2023-04-24T12:04:55;100804.66;;;11.48;27.81
72330;BME280;69154;52.076;5.110;2023-04-24T12:07:21;100819.51;;;9.82;29.11
72330;BME280;69154;52.076;5.110;2023-04-24T12:09:49;100816.34;;;10.42;29.79
72330;BME280;69154;52.076;5.110;2023-04-24T12:12:12;100813.46;;;9.89;30.27
72330;BME280;69154;52.076;5.110;2023-04-24T12:14:42;100818.56;;;10.58;29.54
72330;BME280;69154;52.076;5.110;2023-04-24T12:17:03;100817.34;;;9.01;29.91
72330;BME280;69154;52.076;5.110;2023-04-24T12:19:29;100820.64;;;8.73;30.46
72330;BME280;69154;52.076;5.110;2023-04-24T12:22:00;100836.94;;;9.97;29.91
72330;BME280;69154;52.076;5.110;2023-04-24T12:24:17;100836.74;;;9.79;29.29
72330;BME280;69154;52.076;5.110;2023-04-24T12:26:42;100833.03;;;9.02;31.35
72330;BME280;69154;52.076;5.110;2023-04-24T12:29:07;100839.20;;;8.47;31.57
72330;BME280;69154;52.076;5.110;2023-04-24T12:31:32;100835.62;;;9.15;31.66
72330;BME280;69154;52.076;5.110;2023-04-24T12:33:58;100846.28;;;8.95;31.32
72330;BME280;69154;52.076;5.110;2023-04-24T12:36:23;100846.89;;;10.80;29.40
72330;BME280;69154;52.076;5.110;2023-04-24T12:38:52;100850.21;;;10.53;28.24
72330;BME280;69154;52.076;5.110;2023-04-24T12:41:14;100853.40;;;9.14;29.86
72330;BME280;69154;52.076;5.110;2023-04-24T12:43:51;100854.33;;;10.94;28.60
72330;BME280;69154;52.076;5.110;2023-04-24T12:46:05;100860.86;;;10.68;28.00
72330;BME280;69154;52.076;5.110;2023-04-24T12:48:31;100855.30;;;11.56;27.51